NOZ1487 LFPG-ENZV
Flight info
| Callsign | NOZ1487 |
|---|---|
| Flight time | 1h 31m |
| Altitude | 37000 |
| Route | NURMO6B/26R NURMO DCT CMB DCT VEKIN DCT ADUTO DCT VICOT DCT LONAM DCT LARGA DCT PENUN DCT UNBUD |
| Aircraft | B38M/M-SDE1FGHILORVWXY/HB1 |
Departure
| Time | 2026-05-03 20:35 |
|---|---|
| Airport | Charles de Gaulle International Airport (LFPG) |
Arrival
| Time | 2026-05-03 22:06 |
|---|---|
| Airport | Stavanger Airport, Sola (ENZV) |
| Time | Latitude | Longitude | Altitude | Speed | Heading |
|---|---|---|---|---|---|
| 2026-05-03 20:15 | 49.00575 | 2.56741 | 357 ft | 0 kts | 175° |
| 2026-05-03 20:17 | 49.00583 | 2.56740 | 365 ft | 4 kts | 175° |
| 2026-05-03 20:17 | 49.00609 | 2.56733 | 363 ft | 4 kts | 158° |
| 2026-05-03 20:18 | 49.00624 | 2.56714 | 365 ft | 4 kts | 90° |
| 2026-05-03 20:18 | 49.00622 | 2.56680 | 362 ft | 2 kts | 85° |
| 2026-05-03 20:18 | 49.00622 | 2.56679 | 362 ft | 0 kts | 85° |
| 2026-05-03 20:23 | 49.00623 | 2.56696 | 361 ft | 3 kts | 85° |
| 2026-05-03 20:23 | 49.00630 | 2.56739 | 357 ft | 7 kts | 70° |
| 2026-05-03 20:23 | 49.00649 | 2.56867 | 357 ft | 17 kts | 86° |
| 2026-05-03 20:23 | 49.00667 | 2.57061 | 361 ft | 20 kts | 73° |
| 2026-05-03 20:24 | 49.00719 | 2.57212 | 357 ft | 12 kts | 21° |
| 2026-05-03 20:24 | 49.00806 | 2.57215 | 363 ft | 14 kts | 354° |
| 2026-05-03 20:24 | 49.00848 | 2.57223 | 360 ft | 2 kts | 47° |
| 2026-05-03 20:24 | 49.00858 | 2.57260 | 357 ft | 7 kts | 72° |
| 2026-05-03 20:25 | 49.00870 | 2.57389 | 357 ft | 18 kts | 86° |
| 2026-05-03 20:25 | 49.00883 | 2.57636 | 361 ft | 25 kts | 85° |
| 2026-05-03 20:25 | 49.00896 | 2.57892 | 359 ft | 25 kts | 85° |
| 2026-05-03 20:25 | 49.00908 | 2.58134 | 357 ft | 23 kts | 86° |
| 2026-05-03 20:26 | 49.00921 | 2.58379 | 357 ft | 22 kts | 85° |
| 2026-05-03 20:26 | 49.00935 | 2.58621 | 357 ft | 24 kts | 85° |
| 2026-05-03 20:26 | 49.00949 | 2.58866 | 359 ft | 23 kts | 85° |
| 2026-05-03 20:26 | 49.00986 | 2.59114 | 362 ft | 25 kts | 78° |
| 2026-05-03 20:27 | 49.00998 | 2.59364 | 363 ft | 23 kts | 84° |
| 2026-05-03 20:27 | 49.00963 | 2.59527 | 359 ft | 16 kts | 163° |
| 2026-05-03 20:27 | 49.00847 | 2.59546 | 357 ft | 18 kts | 176° |
| 2026-05-03 20:27 | 49.00719 | 2.59561 | 357 ft | 19 kts | 176° |
| 2026-05-03 20:28 | 49.00581 | 2.59578 | 357 ft | 19 kts | 175° |
| 2026-05-03 20:28 | 49.00442 | 2.59594 | 359 ft | 21 kts | 175° |
| 2026-05-03 20:28 | 49.00301 | 2.59612 | 357 ft | 17 kts | 175° |
| 2026-05-03 20:28 | 49.00186 | 2.59627 | 357 ft | 17 kts | 175° |
| 2026-05-03 20:29 | 49.00090 | 2.59679 | 363 ft | 13 kts | 116° |
| 2026-05-03 20:29 | 49.00091 | 2.59802 | 363 ft | 12 kts | 86° |
| 2026-05-03 20:29 | 49.00095 | 2.59942 | 356 ft | 13 kts | 104° |
| 2026-05-03 20:29 | 49.00032 | 2.60015 | 359 ft | 12 kts | 146° |
| 2026-05-03 20:30 | 48.99951 | 2.60070 | 358 ft | 14 kts | 191° |
| 2026-05-03 20:30 | 48.99935 | 2.60059 | 356 ft | 0 kts | 210° |
| 2026-05-03 20:31 | 48.99934 | 2.60058 | 356 ft | 1 kts | 210° |
| 2026-05-03 20:32 | 48.99923 | 2.60044 | 358 ft | 4 kts | 223° |
| 2026-05-03 20:32 | 48.99873 | 2.59975 | 360 ft | 14 kts | 199° |
| 2026-05-03 20:32 | 48.99814 | 2.59947 | 364 ft | 5 kts | 234° |
| 2026-05-03 20:32 | 48.99812 | 2.59918 | 363 ft | 0 kts | 273° |
| 2026-05-03 20:33 | 48.99813 | 2.59907 | 363 ft | 2 kts | 281° |
| 2026-05-03 20:33 | 48.99814 | 2.59893 | 357 ft | 0 kts | 275° |
| 2026-05-03 20:33 | 48.99814 | 2.59892 | 357 ft | 0 kts | 275° |
| 2026-05-03 20:34 | 48.99813 | 2.59821 | 359 ft | 29 kts | 263° |
| 2026-05-03 20:34 | 48.99773 | 2.59119 | 356 ft | 101 kts | 265° |
| 2026-05-03 20:34 | 48.99691 | 2.57740 | 359 ft | 157 kts | 259° |
| 2026-05-03 20:34 | 48.99607 | 2.55961 | 734 ft | 177 kts | 266° |
| 2026-05-03 20:35 | 48.99540 | 2.54001 | 1259 ft | 194 kts | 265° |
| 2026-05-03 20:35 | 48.99488 | 2.52638 | 1838 ft | 193 kts | 265° |
| 2026-05-03 20:35 | 48.99430 | 2.50612 | 2846 ft | 188 kts | 265° |
| 2026-05-03 20:35 | 48.99235 | 2.47787 | 3651 ft | 215 kts | 262° |
| 2026-05-03 20:36 | 48.99127 | 2.46237 | 3983 ft | 231 kts | 263° |
| 2026-05-03 20:36 | 48.98969 | 2.43724 | 4682 ft | 245 kts | 263° |
| 2026-05-03 20:36 | 48.98809 | 2.41058 | 5347 ft | 259 kts | 263° |
| 2026-05-03 20:36 | 48.98650 | 2.38328 | 6344 ft | 259 kts | 263° |
| 2026-05-03 20:37 | 48.98494 | 2.35564 | 7194 ft | 264 kts | 263° |
| 2026-05-03 20:37 | 48.98336 | 2.32764 | 8099 ft | 267 kts | 263° |
| 2026-05-03 20:37 | 48.98185 | 2.29929 | 8981 ft | 271 kts | 265° |
| 2026-05-03 20:37 | 48.98444 | 2.27062 | 9863 ft | 279 kts | 287° |
| 2026-05-03 20:38 | 48.99432 | 2.24450 | 10471 ft | 298 kts | 308° |
| 2026-05-03 20:38 | 49.01148 | 2.22484 | 10919 ft | 322 kts | 333° |
| 2026-05-03 20:38 | 49.03382 | 2.21793 | 11514 ft | 339 kts | 0° |
| 2026-05-03 20:38 | 49.05683 | 2.22727 | 12256 ft | 347 kts | 26° |
| 2026-05-03 20:39 | 49.07853 | 2.24392 | 13000 ft | 353 kts | 24° |
| 2026-05-03 20:39 | 49.10104 | 2.25959 | 13771 ft | 357 kts | 23° |
| 2026-05-03 20:39 | 49.12389 | 2.27524 | 14445 ft | 362 kts | 23° |
| 2026-05-03 20:39 | 49.14706 | 2.29096 | 15153 ft | 366 kts | 22° |
| 2026-05-03 20:40 | 49.17050 | 2.30677 | 15835 ft | 371 kts | 22° |
| 2026-05-03 20:40 | 49.19427 | 2.32278 | 16513 ft | 375 kts | 22° |
| 2026-05-03 20:40 | 49.21831 | 2.33899 | 17177 ft | 380 kts | 22° |
| 2026-05-03 20:40 | 49.24261 | 2.35538 | 17824 ft | 384 kts | 23° |
| 2026-05-03 20:41 | 49.26724 | 2.37201 | 18431 ft | 388 kts | 22° |
| 2026-05-03 20:41 | 49.29207 | 2.38880 | 18982 ft | 392 kts | 22° |
| 2026-05-03 20:41 | 49.31710 | 2.40578 | 19525 ft | 396 kts | 22° |
| 2026-05-03 20:41 | 49.34337 | 2.41854 | 20031 ft | 396 kts | 6° |
| 2026-05-03 20:42 | 49.37073 | 2.42496 | 20532 ft | 401 kts | 7° |
| 2026-05-03 20:42 | 49.39836 | 2.43230 | 21033 ft | 405 kts | 7° |
| 2026-05-03 20:42 | 49.42583 | 2.43980 | 21577 ft | 408 kts | 7° |
| 2026-05-03 20:42 | 49.45430 | 2.44768 | 22092 ft | 412 kts | 7° |
| 2026-05-03 20:43 | 49.48228 | 2.45547 | 22598 ft | 416 kts | 7° |
| 2026-05-03 20:43 | 49.51085 | 2.46346 | 23128 ft | 420 kts | 7° |
| 2026-05-03 20:43 | 49.53971 | 2.47154 | 23619 ft | 423 kts | 7° |
| 2026-05-03 20:43 | 49.56880 | 2.47968 | 24033 ft | 427 kts | 7° |
| 2026-05-03 20:44 | 49.59820 | 2.48793 | 24443 ft | 431 kts | 7° |
| 2026-05-03 20:44 | 49.62784 | 2.49626 | 24846 ft | 435 kts | 7° |
| 2026-05-03 20:44 | 49.65772 | 2.50466 | 25251 ft | 439 kts | 7° |
| 2026-05-03 20:44 | 49.68792 | 2.51316 | 25650 ft | 442 kts | 7° |
| 2026-05-03 20:45 | 49.71828 | 2.52172 | 26050 ft | 446 kts | 7° |
| 2026-05-03 20:45 | 49.74894 | 2.53037 | 26454 ft | 450 kts | 7° |
| 2026-05-03 20:45 | 49.77983 | 2.53910 | 26843 ft | 453 kts | 7° |
| 2026-05-03 20:45 | 49.81102 | 2.54793 | 27221 ft | 457 kts | 7° |
| 2026-05-03 20:46 | 49.84239 | 2.55681 | 27595 ft | 460 kts | 7° |
| 2026-05-03 20:46 | 49.87402 | 2.56579 | 27952 ft | 464 kts | 7° |
| 2026-05-03 20:46 | 49.90592 | 2.57485 | 28309 ft | 467 kts | 7° |
| 2026-05-03 20:46 | 49.93798 | 2.58397 | 28664 ft | 471 kts | 7° |
| 2026-05-03 20:47 | 49.97029 | 2.59318 | 29092 ft | 472 kts | 7° |
| 2026-05-03 20:47 | 50.00265 | 2.60241 | 29476 ft | 475 kts | 7° |
| 2026-05-03 20:47 | 50.03528 | 2.61173 | 29785 ft | 479 kts | 7° |
| 2026-05-03 20:47 | 50.06810 | 2.62112 | 30120 ft | 481 kts | 7° |
| 2026-05-03 20:48 | 50.10113 | 2.63058 | 30419 ft | 484 kts | 7° |
| 2026-05-03 20:48 | 50.13429 | 2.64009 | 30739 ft | 485 kts | 7° |
| 2026-05-03 20:48 | 50.16758 | 2.64965 | 31058 ft | 487 kts | 7° |
| 2026-05-03 20:48 | 50.20089 | 2.65924 | 31444 ft | 487 kts | 7° |
| 2026-05-03 20:49 | 50.23418 | 2.66883 | 31763 ft | 488 kts | 7° |
| 2026-05-03 20:49 | 50.26767 | 2.67849 | 32025 ft | 491 kts | 7° |
| 2026-05-03 20:49 | 50.30132 | 2.68821 | 32322 ft | 492 kts | 7° |
| 2026-05-03 20:49 | 50.33503 | 2.69796 | 32596 ft | 494 kts | 7° |
| 2026-05-03 20:50 | 50.36897 | 2.70780 | 32875 ft | 496 kts | 7° |
| 2026-05-03 20:50 | 50.40298 | 2.71767 | 33164 ft | 498 kts | 7° |
| 2026-05-03 20:50 | 50.43671 | 2.72747 | 33426 ft | 500 kts | 7° |
| 2026-05-03 20:50 | 50.47145 | 2.73758 | 33693 ft | 502 kts | 7° |
| 2026-05-03 20:51 | 50.50587 | 2.74761 | 33949 ft | 504 kts | 7° |
| 2026-05-03 20:51 | 50.53998 | 2.75757 | 34231 ft | 504 kts | 7° |
| 2026-05-03 20:51 | 50.57441 | 2.76764 | 34595 ft | 502 kts | 7° |
| 2026-05-03 20:51 | 50.60867 | 2.77767 | 34968 ft | 500 kts | 8° |
| 2026-05-03 20:52 | 50.64271 | 2.78764 | 35382 ft | 497 kts | 8° |
| 2026-05-03 20:52 | 50.67665 | 2.79760 | 35781 ft | 494 kts | 8° |
| 2026-05-03 20:52 | 50.71030 | 2.80749 | 36152 ft | 491 kts | 8° |
| 2026-05-03 20:52 | 50.74372 | 2.81733 | 36552 ft | 487 kts | 8° |
| 2026-05-03 20:53 | 50.77703 | 2.82714 | 36870 ft | 486 kts | 8° |
| 2026-05-03 20:53 | 50.84335 | 2.84673 | 36925 ft | 483 kts | 8° |
| 2026-05-03 20:54 | 50.90931 | 2.86628 | 36931 ft | 483 kts | 8° |
| 2026-05-03 20:54 | 51.00841 | 2.89576 | 36932 ft | 483 kts | 8° |
| 2026-05-03 20:55 | 51.07441 | 2.91546 | 36936 ft | 483 kts | 8° |
| 2026-05-03 20:55 | 51.14049 | 2.93524 | 36938 ft | 483 kts | 8° |
| 2026-05-03 20:56 | 51.20648 | 2.95505 | 36938 ft | 483 kts | 8° |
| 2026-05-03 20:56 | 51.27253 | 2.97494 | 36937 ft | 483 kts | 8° |
| 2026-05-03 20:57 | 51.33855 | 2.99488 | 36913 ft | 483 kts | 8° |
| 2026-05-03 20:57 | 51.40453 | 3.01487 | 36915 ft | 483 kts | 8° |
| 2026-05-03 20:58 | 51.47056 | 3.03493 | 36914 ft | 483 kts | 8° |
| 2026-05-03 20:58 | 51.53653 | 3.05503 | 36923 ft | 483 kts | 8° |
| 2026-05-03 20:59 | 51.60200 | 3.07503 | 36911 ft | 481 kts | 8° |
| 2026-05-03 20:59 | 51.66781 | 3.09520 | 36912 ft | 481 kts | 8° |
| 2026-05-03 21:00 | 51.72298 | 3.11216 | 36913 ft | 482 kts | 8° |
| 2026-05-03 21:00 | 51.79953 | 3.13576 | 36918 ft | 481 kts | 8° |
| 2026-05-03 21:01 | 51.86524 | 3.15607 | 36912 ft | 481 kts | 8° |
| 2026-05-03 21:01 | 51.93092 | 3.17644 | 36915 ft | 481 kts | 8° |
| 2026-05-03 21:02 | 51.99669 | 3.19690 | 36916 ft | 481 kts | 8° |
| 2026-05-03 21:02 | 52.06231 | 3.21738 | 36911 ft | 479 kts | 9° |
| 2026-05-03 21:03 | 52.12774 | 3.23786 | 36914 ft | 479 kts | 9° |
| 2026-05-03 21:03 | 52.19318 | 3.25840 | 36913 ft | 479 kts | 9° |
| 2026-05-03 21:04 | 52.25865 | 3.27901 | 36927 ft | 478 kts | 9° |
| 2026-05-03 21:04 | 52.32385 | 3.29959 | 36912 ft | 476 kts | 9° |
| 2026-05-03 21:05 | 52.38897 | 3.32022 | 36915 ft | 477 kts | 9° |
| 2026-05-03 21:05 | 52.45420 | 3.34094 | 36914 ft | 477 kts | 9° |
| 2026-05-03 21:06 | 52.51934 | 3.36169 | 36917 ft | 477 kts | 9° |
| 2026-05-03 21:06 | 52.58447 | 3.38251 | 36912 ft | 477 kts | 9° |
| 2026-05-03 21:07 | 52.64959 | 3.40338 | 36908 ft | 477 kts | 9° |
| 2026-05-03 21:07 | 52.71472 | 3.42433 | 36917 ft | 477 kts | 9° |
| 2026-05-03 21:08 | 52.77991 | 3.44535 | 36917 ft | 477 kts | 9° |
| 2026-05-03 21:08 | 52.84471 | 3.46631 | 36917 ft | 478 kts | 9° |
| 2026-05-03 21:09 | 52.91034 | 3.48761 | 36917 ft | 478 kts | 9° |
| 2026-05-03 21:09 | 52.97515 | 3.50871 | 36924 ft | 478 kts | 9° |
| 2026-05-03 21:10 | 53.04031 | 3.52998 | 36916 ft | 477 kts | 9° |
| 2026-05-03 21:10 | 53.10549 | 3.55133 | 36920 ft | 477 kts | 9° |
| 2026-05-03 21:11 | 53.17068 | 3.57274 | 36907 ft | 477 kts | 9° |
| 2026-05-03 21:11 | 53.23578 | 3.59419 | 36920 ft | 478 kts | 9° |
| 2026-05-03 21:12 | 53.30108 | 3.61578 | 36919 ft | 478 kts | 9° |
| 2026-05-03 21:12 | 53.36631 | 3.63741 | 36919 ft | 478 kts | 9° |
| 2026-05-03 21:13 | 53.43161 | 3.65913 | 36919 ft | 478 kts | 9° |
| 2026-05-03 21:13 | 53.49682 | 3.68089 | 36917 ft | 478 kts | 9° |
| 2026-05-03 21:14 | 53.56210 | 3.70273 | 36917 ft | 478 kts | 9° |
| 2026-05-03 21:14 | 53.62734 | 3.72464 | 36917 ft | 478 kts | 9° |
| 2026-05-03 21:15 | 53.69256 | 3.74661 | 36928 ft | 478 kts | 9° |
| 2026-05-03 21:15 | 53.75782 | 3.76866 | 36911 ft | 478 kts | 9° |
| 2026-05-03 21:16 | 53.82299 | 3.79075 | 36916 ft | 478 kts | 9° |
| 2026-05-03 21:16 | 53.88817 | 3.81291 | 36916 ft | 478 kts | 9° |
| 2026-05-03 21:17 | 53.94235 | 3.83139 | 36932 ft | 478 kts | 9° |
| 2026-05-03 21:17 | 54.01837 | 3.85740 | 36910 ft | 476 kts | 9° |
| 2026-05-03 21:18 | 54.08333 | 3.87970 | 36915 ft | 476 kts | 9° |
| 2026-05-03 21:18 | 54.14826 | 3.90206 | 36910 ft | 476 kts | 9° |
| 2026-05-03 21:19 | 54.21323 | 3.92451 | 36920 ft | 476 kts | 9° |
| 2026-05-03 21:19 | 54.27820 | 3.94703 | 36915 ft | 477 kts | 9° |
| 2026-05-03 21:20 | 54.34327 | 3.96966 | 36917 ft | 477 kts | 9° |
| 2026-05-03 21:20 | 54.40824 | 3.99232 | 36920 ft | 477 kts | 9° |
| 2026-05-03 21:21 | 54.47279 | 4.01491 | 36923 ft | 477 kts | 9° |
| 2026-05-03 21:21 | 54.53789 | 4.03777 | 36924 ft | 477 kts | 9° |
| 2026-05-03 21:22 | 54.60296 | 4.06070 | 36924 ft | 477 kts | 9° |
| 2026-05-03 21:22 | 54.66800 | 4.08368 | 36924 ft | 477 kts | 9° |
| 2026-05-03 21:23 | 54.73307 | 4.10675 | 36925 ft | 477 kts | 8° |
| 2026-05-03 21:23 | 54.79806 | 4.12987 | 36912 ft | 477 kts | 8° |
| 2026-05-03 21:24 | 54.86316 | 4.15253 | 36914 ft | 476 kts | 6° |
| 2026-05-03 21:24 | 54.91750 | 4.16761 | 36917 ft | 476 kts | 6° |
| 2026-05-03 21:25 | 54.98332 | 4.18653 | 36922 ft | 476 kts | 6° |
| 2026-05-03 21:25 | 55.04819 | 4.20531 | 36913 ft | 476 kts | 6° |
| 2026-05-03 21:26 | 55.11355 | 4.22429 | 36919 ft | 476 kts | 6° |
| 2026-05-03 21:26 | 55.17886 | 4.24332 | 36919 ft | 476 kts | 6° |
| 2026-05-03 21:27 | 55.24413 | 4.26240 | 36925 ft | 475 kts | 6° |
| 2026-05-03 21:27 | 55.30931 | 4.28153 | 36926 ft | 475 kts | 6° |
| 2026-05-03 21:28 | 55.37453 | 4.30072 | 36929 ft | 475 kts | 6° |
| 2026-05-03 21:28 | 55.43960 | 4.32216 | 36928 ft | 476 kts | 8° |
| 2026-05-03 21:29 | 55.50454 | 4.34399 | 36934 ft | 474 kts | 7° |
| 2026-05-03 21:29 | 55.56940 | 4.36579 | 36934 ft | 475 kts | 7° |
| 2026-05-03 21:30 | 55.63425 | 4.38766 | 36939 ft | 475 kts | 7° |
| 2026-05-03 21:30 | 55.69911 | 4.40960 | 36938 ft | 475 kts | 8° |
| 2026-05-03 21:31 | 55.76395 | 4.43161 | 36945 ft | 473 kts | 8° |
| 2026-05-03 21:31 | 55.82820 | 4.45350 | 36950 ft | 473 kts | 8° |
| 2026-05-03 21:32 | 55.89332 | 4.47576 | 36944 ft | 474 kts | 8° |
| 2026-05-03 21:32 | 55.95761 | 4.49781 | 36950 ft | 474 kts | 8° |
| 2026-05-03 21:33 | 56.02231 | 4.52007 | 36948 ft | 474 kts | 8° |
| 2026-05-03 21:33 | 56.08701 | 4.54241 | 36950 ft | 473 kts | 8° |
| 2026-05-03 21:34 | 56.15172 | 4.56483 | 36932 ft | 474 kts | 8° |
| 2026-05-03 21:34 | 56.21647 | 4.58735 | 36954 ft | 475 kts | 8° |
| 2026-05-03 21:35 | 56.28129 | 4.60996 | 36950 ft | 474 kts | 8° |
| 2026-05-03 21:35 | 56.34598 | 4.63261 | 36951 ft | 474 kts | 8° |
| 2026-05-03 21:36 | 56.41072 | 4.65535 | 36947 ft | 474 kts | 8° |
| 2026-05-03 21:36 | 56.47541 | 4.67815 | 36947 ft | 474 kts | 8° |
| 2026-05-03 21:37 | 56.54005 | 4.70102 | 36860 ft | 470 kts | 8° |
| 2026-05-03 21:37 | 56.57199 | 4.71235 | 36234 ft | 468 kts | 8° |
| 2026-05-03 21:37 | 56.60403 | 4.72373 | 35546 ft | 469 kts | 8° |
| 2026-05-03 21:38 | 56.63603 | 4.73512 | 34978 ft | 468 kts | 8° |
| 2026-05-03 21:38 | 56.66781 | 4.74644 | 34507 ft | 464 kts | 8° |
| 2026-05-03 21:38 | 56.69934 | 4.75771 | 34040 ft | 460 kts | 8° |
| 2026-05-03 21:38 | 56.73071 | 4.76893 | 33452 ft | 458 kts | 8° |
| 2026-05-03 21:39 | 56.76191 | 4.78010 | 32898 ft | 456 kts | 8° |
| 2026-05-03 21:39 | 56.79291 | 4.79123 | 32391 ft | 452 kts | 8° |
| 2026-05-03 21:39 | 56.82366 | 4.80229 | 31911 ft | 449 kts | 8° |
| 2026-05-03 21:39 | 56.85418 | 4.81328 | 31400 ft | 445 kts | 8° |
| 2026-05-03 21:40 | 56.88443 | 4.82420 | 30906 ft | 442 kts | 8° |
| 2026-05-03 21:40 | 56.91454 | 4.83508 | 30421 ft | 439 kts | 8° |
| 2026-05-03 21:40 | 56.94443 | 4.84589 | 29928 ft | 437 kts | 8° |
| 2026-05-03 21:40 | 56.97419 | 4.85668 | 29374 ft | 434 kts | 8° |
| 2026-05-03 21:41 | 57.00362 | 4.86737 | 28902 ft | 429 kts | 8° |
| 2026-05-03 21:41 | 57.03276 | 4.87796 | 28472 ft | 425 kts | 8° |
| 2026-05-03 21:41 | 57.06164 | 4.88849 | 28002 ft | 421 kts | 8° |
| 2026-05-03 21:41 | 57.09022 | 4.89891 | 27555 ft | 417 kts | 8° |
| 2026-05-03 21:42 | 57.11816 | 4.90912 | 27126 ft | 413 kts | 8° |
| 2026-05-03 21:42 | 57.14624 | 4.91940 | 26695 ft | 409 kts | 8° |
| 2026-05-03 21:42 | 57.17442 | 4.92973 | 26266 ft | 406 kts | 8° |
| 2026-05-03 21:42 | 57.20164 | 4.93972 | 25848 ft | 403 kts | 8° |
| 2026-05-03 21:43 | 57.22900 | 4.94978 | 25440 ft | 400 kts | 8° |
| 2026-05-03 21:43 | 57.25619 | 4.95979 | 25037 ft | 397 kts | 8° |
| 2026-05-03 21:43 | 57.28316 | 4.96973 | 24663 ft | 394 kts | 8° |
| 2026-05-03 21:43 | 57.30982 | 4.97958 | 24341 ft | 389 kts | 8° |
| 2026-05-03 21:44 | 57.33636 | 4.98939 | 23856 ft | 389 kts | 8° |
| 2026-05-03 21:44 | 57.36292 | 4.99923 | 23419 ft | 388 kts | 8° |
| 2026-05-03 21:44 | 57.38930 | 5.00902 | 22962 ft | 386 kts | 8° |
| 2026-05-03 21:44 | 57.41549 | 5.01874 | 22551 ft | 382 kts | 8° |
| 2026-05-03 21:45 | 57.44145 | 5.02840 | 22165 ft | 378 kts | 8° |
| 2026-05-03 21:45 | 57.46716 | 5.03798 | 21774 ft | 375 kts | 8° |
| 2026-05-03 21:45 | 57.49261 | 5.04748 | 21394 ft | 372 kts | 8° |
| 2026-05-03 21:45 | 57.51785 | 5.05691 | 21011 ft | 369 kts | 8° |
| 2026-05-03 21:46 | 57.54293 | 5.06629 | 20637 ft | 366 kts | 8° |
| 2026-05-03 21:46 | 57.56772 | 5.07559 | 20279 ft | 363 kts | 7° |
| 2026-05-03 21:46 | 57.59243 | 5.08485 | 19904 ft | 360 kts | 8° |
| 2026-05-03 21:46 | 57.61691 | 5.09405 | 19534 ft | 358 kts | 7° |
| 2026-05-03 21:47 | 57.64128 | 5.10322 | 19169 ft | 356 kts | 8° |
| 2026-05-03 21:47 | 57.66544 | 5.11232 | 18808 ft | 354 kts | 8° |
| 2026-05-03 21:47 | 57.68951 | 5.12141 | 18443 ft | 352 kts | 8° |
| 2026-05-03 21:47 | 57.71343 | 5.13043 | 18068 ft | 350 kts | 8° |
| 2026-05-03 21:48 | 57.73716 | 5.14019 | 17574 ft | 351 kts | 12° |
| 2026-05-03 21:48 | 57.76092 | 5.15228 | 16922 ft | 351 kts | 11° |
| 2026-05-03 21:48 | 57.78410 | 5.16393 | 16533 ft | 339 kts | 12° |
| 2026-05-03 21:48 | 57.80643 | 5.17501 | 16199 ft | 326 kts | 10° |
| 2026-05-03 21:49 | 57.82803 | 5.18569 | 15883 ft | 315 kts | 11° |
| 2026-05-03 21:49 | 57.84884 | 5.19594 | 15562 ft | 304 kts | 11° |
| 2026-05-03 21:49 | 57.86926 | 5.20598 | 15255 ft | 307 kts | 10° |
| 2026-05-03 21:49 | 57.89016 | 5.21628 | 14922 ft | 313 kts | 9° |
| 2026-05-03 21:50 | 57.91135 | 5.22673 | 14610 ft | 316 kts | 10° |
| 2026-05-03 21:50 | 57.93262 | 5.23726 | 14293 ft | 316 kts | 11° |
| 2026-05-03 21:50 | 57.95386 | 5.24779 | 13974 ft | 316 kts | 10° |
| 2026-05-03 21:50 | 57.97513 | 5.25832 | 13638 ft | 316 kts | 10° |
| 2026-05-03 21:51 | 57.99629 | 5.26884 | 13272 ft | 314 kts | 11° |
| 2026-05-03 21:51 | 58.01735 | 5.27933 | 12933 ft | 311 kts | 11° |
| 2026-05-03 21:51 | 58.03820 | 5.28971 | 12604 ft | 308 kts | 10° |
| 2026-05-03 21:51 | 58.05855 | 5.29986 | 12289 ft | 305 kts | 9° |
| 2026-05-03 21:52 | 58.07926 | 5.31020 | 11967 ft | 303 kts | 9° |
| 2026-05-03 21:52 | 58.09957 | 5.32031 | 11678 ft | 300 kts | 11° |
| 2026-05-03 21:52 | 58.11964 | 5.33035 | 11406 ft | 297 kts | 10° |
| 2026-05-03 21:52 | 58.13951 | 5.34032 | 11115 ft | 294 kts | 9° |
| 2026-05-03 21:53 | 58.15892 | 5.35002 | 10811 ft | 292 kts | 11° |
| 2026-05-03 21:53 | 58.17871 | 5.35995 | 10512 ft | 289 kts | 11° |
| 2026-05-03 21:53 | 58.19811 | 5.36972 | 10213 ft | 287 kts | 9° |
| 2026-05-03 21:53 | 58.21695 | 5.37920 | 10044 ft | 280 kts | 10° |
| 2026-05-03 21:54 | 58.23568 | 5.38864 | 9788 ft | 277 kts | 11° |
| 2026-05-03 21:54 | 58.25428 | 5.39801 | 9443 ft | 276 kts | 8° |
| 2026-05-03 21:54 | 58.27279 | 5.40733 | 9139 ft | 274 kts | 10° |
| 2026-05-03 21:54 | 58.29113 | 5.41656 | 8843 ft | 272 kts | 9° |
| 2026-05-03 21:55 | 58.30932 | 5.42578 | 8555 ft | 269 kts | 12° |
| 2026-05-03 21:55 | 58.32731 | 5.43494 | 8277 ft | 266 kts | 9° |
| 2026-05-03 21:55 | 58.34522 | 5.44394 | 7960 ft | 266 kts | 12° |
| 2026-05-03 21:55 | 58.36300 | 5.45296 | 7702 ft | 264 kts | 10° |
| 2026-05-03 21:56 | 58.38064 | 5.46197 | 7427 ft | 261 kts | 11° |
| 2026-05-03 21:56 | 58.39815 | 5.47086 | 7163 ft | 260 kts | 9° |
| 2026-05-03 21:56 | 58.41557 | 5.47968 | 6865 ft | 258 kts | 11° |
| 2026-05-03 21:56 | 58.43283 | 5.48851 | 6587 ft | 257 kts | 10° |
| 2026-05-03 21:57 | 58.44991 | 5.49724 | 6363 ft | 252 kts | 10° |
| 2026-05-03 21:57 | 58.46681 | 5.50582 | 6057 ft | 251 kts | 11° |
| 2026-05-03 21:57 | 58.48360 | 5.51443 | 5753 ft | 249 kts | 10° |
| 2026-05-03 21:57 | 58.50027 | 5.52296 | 5473 ft | 247 kts | 9° |
| 2026-05-03 21:58 | 58.51674 | 5.53136 | 5189 ft | 244 kts | 9° |
| 2026-05-03 21:58 | 58.53306 | 5.53971 | 4930 ft | 241 kts | 11° |
| 2026-05-03 21:58 | 58.54916 | 5.54800 | 4669 ft | 238 kts | 9° |
| 2026-05-03 21:58 | 58.56503 | 5.55618 | 4411 ft | 235 kts | 10° |
| 2026-05-03 21:59 | 58.58051 | 5.56413 | 4170 ft | 225 kts | 10° |
| 2026-05-03 21:59 | 58.59524 | 5.57170 | 4002 ft | 213 kts | 11° |
| 2026-05-03 21:59 | 58.60944 | 5.57903 | 3904 ft | 210 kts | 9° |
| 2026-05-03 21:59 | 58.62321 | 5.58614 | 3790 ft | 199 kts | 12° |
| 2026-05-03 22:00 | 58.63621 | 5.59285 | 3677 ft | 188 kts | 11° |
| 2026-05-03 22:00 | 58.64881 | 5.59933 | 3568 ft | 187 kts | 10° |
| 2026-05-03 22:00 | 58.66124 | 5.60576 | 3482 ft | 181 kts | 11° |
| 2026-05-03 22:00 | 58.67314 | 5.61192 | 3388 ft | 175 kts | 10° |
| 2026-05-03 22:01 | 58.68486 | 5.61792 | 3261 ft | 173 kts | 12° |
| 2026-05-03 22:01 | 58.69651 | 5.62393 | 3150 ft | 175 kts | 12° |
| 2026-05-03 22:01 | 58.70810 | 5.62998 | 3062 ft | 168 kts | 13° |
| 2026-05-03 22:01 | 58.71914 | 5.63555 | 2909 ft | 159 kts | 8° |
| 2026-05-03 22:02 | 58.72966 | 5.63903 | 2761 ft | 149 kts | 3° |
| 2026-05-03 22:02 | 58.73991 | 5.64067 | 2576 ft | 147 kts | 0° |
| 2026-05-03 22:02 | 58.75002 | 5.64116 | 2461 ft | 144 kts | 359° |
| 2026-05-03 22:02 | 58.76002 | 5.64117 | 2296 ft | 142 kts | 358° |
| 2026-05-03 22:03 | 58.76976 | 5.64099 | 2102 ft | 139 kts | 357° |
| 2026-05-03 22:03 | 58.77931 | 5.64074 | 1914 ft | 136 kts | 357° |
| 2026-05-03 22:03 | 58.78879 | 5.64049 | 1740 ft | 138 kts | 356° |
| 2026-05-03 22:03 | 58.79836 | 5.64020 | 1570 ft | 138 kts | 356° |
| 2026-05-03 22:04 | 58.80791 | 5.63989 | 1366 ft | 136 kts | 357° |
| 2026-05-03 22:04 | 58.81707 | 5.63965 | 1197 ft | 128 kts | 356° |
| 2026-05-03 22:04 | 58.82585 | 5.63939 | 978 ft | 123 kts | 356° |
| 2026-05-03 22:04 | 58.83440 | 5.63927 | 809 ft | 122 kts | 356° |
| 2026-05-03 22:05 | 58.84295 | 5.63907 | 619 ft | 125 kts | 353° |
| 2026-05-03 22:05 | 58.85168 | 5.63861 | 471 ft | 128 kts | 357° |
| 2026-05-03 22:05 | 58.86069 | 5.63842 | 284 ft | 131 kts | 356° |
| 2026-05-03 22:05 | 58.86980 | 5.63807 | 122 ft | 129 kts | 354° |
| 2026-05-03 22:06 | 58.87837 | 5.63780 | 37 ft | 110 kts | 357° |
| 2026-05-03 22:06 | 58.88340 | 5.63754 | 33 ft | 40 kts | 0° |
| 2026-05-03 22:06 | 58.88528 | 5.63759 | 32 ft | 26 kts | 0° |
| 2026-05-03 22:06 | 58.88695 | 5.63705 | 30 ft | 20 kts | 302° |
| 2026-05-03 22:07 | 58.88698 | 5.63452 | 34 ft | 14 kts | 243° |
| 2026-05-03 22:07 | 58.88639 | 5.63414 | 34 ft | 9 kts | 166° |
| 2026-05-03 22:07 | 58.88558 | 5.63436 | 33 ft | 15 kts | 182° |
| 2026-05-03 22:07 | 58.88435 | 5.63425 | 33 ft | 21 kts | 181° |
| 2026-05-03 22:08 | 58.88291 | 5.63399 | 34 ft | 18 kts | 225° |
| 2026-05-03 22:08 | 58.88282 | 5.63253 | 32 ft | 12 kts | 314° |
| 2026-05-03 22:08 | 58.88289 | 5.63143 | 27 ft | 11 kts | 245° |
| 2026-05-03 22:08 | 58.88280 | 5.63103 | 28 ft | 0 kts | 249° |
| 2026-05-03 22:09 | 58.88280 | 5.63102 | 28 ft | 0 kts | 249° |